sensor_id;sensor_type;location;lat;lon;timestamp;P1;durP1;ratioP1;P2;durP2;ratioP2
42110;SDS011;27766;52.174;5.456;2024-02-21T00:00:00;10.15;;;3.65;;
42110;SDS011;27766;52.174;5.456;2024-02-21T00:02:27;11.77;;;4.45;;
42110;SDS011;27766;52.174;5.456;2024-02-21T00:04:54;5.28;;;3.42;;
42110;SDS011;27766;52.174;5.456;2024-02-21T00:07:22;9.70;;;3.85;;
42110;SDS011;27766;52.174;5.456;2024-02-21T00:09:49;7.70;;;3.75;;
42110;SDS011;27766;52.174;5.456;2024-02-21T00:12:17;12.18;;;3.75;;
42110;SDS011;27766;52.174;5.456;2024-02-21T00:14:44;6.32;;;3.10;;
42110;SDS011;27766;52.174;5.456;2024-02-21T00:17:12;12.00;;;4.18;;
42110;SDS011;27766;52.174;5.456;2024-02-21T00:19:39;7.78;;;3.65;;
42110;SDS011;27766;52.174;5.456;2024-02-21T00:22:06;8.25;;;2.92;;
42110;SDS011;27766;52.174;5.456;2024-02-21T00:24:34;13.50;;;3.95;;
42110;SDS011;27766;52.174;5.456;2024-02-21T00:27:02;15.07;;;3.42;;
42110;SDS011;27766;52.174;5.456;2024-02-21T00:29:29;6.35;;;3.40;;
42110;SDS011;27766;52.174;5.456;2024-02-21T00:31:56;16.35;;;4.07;;
42110;SDS011;27766;52.174;5.456;2024-02-21T00:34:23;5.10;;;3.10;;
42110;SDS011;27766;52.174;5.456;2024-02-21T00:36:51;11.38;;;3.55;;
42110;SDS011;27766;52.174;5.456;2024-02-21T00:39:18;9.05;;;3.55;;
42110;SDS011;27766;52.174;5.456;2024-02-21T00:41:45;5.28;;;3.28;;
42110;SDS011;27766;52.174;5.456;2024-02-21T00:44:13;11.73;;;3.50;;
42110;SDS011;27766;52.174;5.456;2024-02-21T00:46:40;4.90;;;3.15;;
42110;SDS011;27766;52.174;5.456;2024-02-21T00:49:08;6.70;;;3.10;;
42110;SDS011;27766;52.174;5.456;2024-02-21T00:51:35;10.52;;;3.75;;
42110;SDS011;27766;52.174;5.456;2024-02-21T00:54:02;7.97;;;3.45;;
42110;SDS011;27766;52.174;5.456;2024-02-21T00:56:30;8.75;;;3.78;;
42110;SDS011;27766;52.174;5.456;2024-02-21T00:58:57;7.85;;;3.75;;
42110;SDS011;27766;52.174;5.456;2024-02-21T01:01:25;8.98;;;3.40;;
42110;SDS011;27766;52.174;5.456;2024-02-21T01:03:52;12.18;;;3.30;;
42110;SDS011;27766;52.174;5.456;2024-02-21T01:06:21;8.57;;;3.88;;
42110;SDS011;27766;52.174;5.456;2024-02-21T01:08:48;7.43;;;3.30;;
42110;SDS011;27766;52.174;5.456;2024-02-21T01:11:16;14.57;;;3.83;;
42110;SDS011;27766;52.174;5.456;2024-02-21T01:13:44;9.18;;;2.97;;
42110;SDS011;27766;52.174;5.456;2024-02-21T01:16:11;5.53;;;3.25;;
42110;SDS011;27766;52.174;5.456;2024-02-21T01:18:38;7.50;;;3.58;;
42110;SDS011;27766;52.174;5.456;2024-02-21T01:21:07;6.15;;;3.60;;
42110;SDS011;27766;52.174;5.456;2024-02-21T01:23:34;12.75;;;4.80;;
42110;SDS011;27766;52.174;5.456;2024-02-21T01:26:03;7.53;;;4.05;;
42110;SDS011;27766;52.174;5.456;2024-02-21T01:28:30;12.02;;;4.95;;
42110;SDS011;27766;52.174;5.456;2024-02-21T01:30:58;8.77;;;4.15;;
42110;SDS011;27766;52.174;5.456;2024-02-21T01:33:25;5.97;;;3.65;;
42110;SDS011;27766;52.174;5.456;2024-02-21T01:35:52;15.98;;;5.18;;
42110;SDS011;27766;52.174;5.456;2024-02-21T01:38:20;11.68;;;5.10;;
42110;SDS011;27766;52.174;5.456;2024-02-21T01:40:47;11.38;;;4.90;;
42110;SDS011;27766;52.174;5.456;2024-02-21T01:43:18;13.30;;;5.68;;
42110;SDS011;27766;52.174;5.456;2024-02-21T01:45:48;10.52;;;4.15;;
42110;SDS011;27766;52.174;5.456;2024-02-21T01:48:17;11.23;;;4.60;;
42110;SDS011;27766;52.174;5.456;2024-02-21T01:50:45;11.43;;;4.57;;
42110;SDS011;27766;52.174;5.456;2024-02-21T01:53:13;8.93;;;4.97;;
42110;SDS011;27766;52.174;5.456;2024-02-21T01:55:45;10.70;;;3.85;;
42110;SDS011;27766;52.174;5.456;2024-02-21T01:58:15;10.60;;;4.65;;
42110;SDS011;27766;52.174;5.456;2024-02-21T02:00:44;13.07;;;3.80;;
42110;SDS011;27766;52.174;5.456;2024-02-21T02:03:13;9.38;;;4.35;;
42110;SDS011;27766;52.174;5.456;2024-02-21T02:05:44;19.27;;;4.88;;
42110;SDS011;27766;52.174;5.456;2024-02-21T02:08:16;10.48;;;4.65;;
42110;SDS011;27766;52.174;5.456;2024-02-21T02:10:45;7.07;;;4.75;;
42110;SDS011;27766;52.174;5.456;2024-02-21T02:13:15;11.18;;;4.40;;
42110;SDS011;27766;52.174;5.456;2024-02-21T02:15:46;10.43;;;4.63;;
42110;SDS011;27766;52.174;5.456;2024-02-21T02:18:15;12.63;;;4.55;;
42110;SDS011;27766;52.174;5.456;2024-02-21T02:20:44;12.60;;;4.45;;
42110;SDS011;27766;52.174;5.456;2024-02-21T02:25:45;14.02;;;4.90;;
42110;SDS011;27766;52.174;5.456;2024-02-21T02:28:16;17.13;;;6.13;;
42110;SDS011;27766;52.174;5.456;2024-02-21T02:30:43;10.05;;;4.72;;
42110;SDS011;27766;52.174;5.456;2024-02-21T02:33:10;9.15;;;4.57;;
42110;SDS011;27766;52.174;5.456;2024-02-21T02:35:38;7.85;;;3.50;;
42110;SDS011;27766;52.174;5.456;2024-02-21T02:38:05;9.80;;;4.90;;
42110;SDS011;27766;52.174;5.456;2024-02-21T02:40:33;12.77;;;5.18;;
42110;SDS011;27766;52.174;5.456;2024-02-21T02:43:01;8.23;;;4.35;;
42110;SDS011;27766;52.174;5.456;2024-02-21T02:45:28;12.13;;;4.60;;
42110;SDS011;27766;52.174;5.456;2024-02-21T02:47:55;11.63;;;4.80;;
42110;SDS011;27766;52.174;5.456;2024-02-21T02:50:24;12.77;;;5.10;;
42110;SDS011;27766;52.174;5.456;2024-02-21T02:52:52;16.38;;;5.10;;
42110;SDS011;27766;52.174;5.456;2024-02-21T02:55:20;8.90;;;4.60;;
42110;SDS011;27766;52.174;5.456;2024-02-21T02:57:47;11.70;;;4.90;;
42110;SDS011;27766;52.174;5.456;2024-02-21T03:00:14;10.52;;;4.20;;
42110;SDS011;27766;52.174;5.456;2024-02-21T03:02:46;9.02;;;4.53;;
42110;SDS011;27766;52.174;5.456;2024-02-21T03:07:44;12.60;;;4.95;;
42110;SDS011;27766;52.174;5.456;2024-02-21T03:10:12;11.88;;;5.38;;
42110;SDS011;27766;52.174;5.456;2024-02-21T03:12:39;13.38;;;4.35;;
42110;SDS011;27766;52.174;5.456;2024-02-21T03:15:07;8.98;;;4.57;;
42110;SDS011;27766;52.174;5.456;2024-02-21T03:17:34;13.55;;;5.53;;
42110;SDS011;27766;52.174;5.456;2024-02-21T03:20:03;7.85;;;4.95;;
42110;SDS011;27766;52.174;5.456;2024-02-21T03:22:39;9.98;;;5.38;;
42110;SDS011;27766;52.174;5.456;2024-02-21T03:25:08;8.88;;;4.50;;
42110;SDS011;27766;52.174;5.456;2024-02-21T03:27:36;10.98;;;5.45;;
42110;SDS011;27766;52.174;5.456;2024-02-21T03:30:04;17.08;;;5.68;;
42110;SDS011;27766;52.174;5.456;2024-02-21T03:32:33;15.85;;;5.32;;
42110;SDS011;27766;52.174;5.456;2024-02-21T03:35:01;17.58;;;5.35;;
42110;SDS011;27766;52.174;5.456;2024-02-21T03:37:28;13.93;;;5.45;;
42110;SDS011;27766;52.174;5.456;2024-02-21T03:39:55;10.43;;;5.60;;
42110;SDS011;27766;52.174;5.456;2024-02-21T03:42:22;9.82;;;5.65;;
42110;SDS011;27766;52.174;5.456;2024-02-21T03:44:49;7.63;;;4.60;;
42110;SDS011;27766;52.174;5.456;2024-02-21T03:47:17;10.13;;;5.82;;
42110;SDS011;27766;52.174;5.456;2024-02-21T03:49:44;18.55;;;6.50;;
42110;SDS011;27766;52.174;5.456;2024-02-21T03:52:11;8.68;;;5.03;;
42110;SDS011;27766;52.174;5.456;2024-02-21T03:54:39;8.93;;;5.07;;
42110;SDS011;27766;52.174;5.456;2024-02-21T03:57:06;15.85;;;5.22;;
42110;SDS011;27766;52.174;5.456;2024-02-21T03:59:33;10.20;;;5.68;;
42110;SDS011;27766;52.174;5.456;2024-02-21T04:02:00;10.55;;;5.55;;
42110;SDS011;27766;52.174;5.456;2024-02-21T04:04:28;12.63;;;4.78;;
42110;SDS011;27766;52.174;5.456;2024-02-21T04:06:55;13.40;;;5.22;;
42110;SDS011;27766;52.174;5.456;2024-02-21T04:09:22;8.57;;;5.40;;
42110;SDS011;27766;52.174;5.456;2024-02-21T04:11:49;7.57;;;5.05;;
42110;SDS011;27766;52.174;5.456;2024-02-21T04:14:17;9.00;;;5.75;;
42110;SDS011;27766;52.174;5.456;2024-02-21T04:16:44;14.13;;;5.63;;
42110;SDS011;27766;52.174;5.456;2024-02-21T04:19:11;10.50;;;4.63;;
42110;SDS011;27766;52.174;5.456;2024-02-21T04:21:39;7.38;;;4.93;;
42110;SDS011;27766;52.174;5.456;2024-02-21T04:24:06;16.45;;;5.40;;
42110;SDS011;27766;52.174;5.456;2024-02-21T04:26:33;8.30;;;4.50;;
42110;SDS011;27766;52.174;5.456;2024-02-21T04:29:01;7.35;;;5.10;;
42110;SDS011;27766;52.174;5.456;2024-02-21T04:31:29;9.10;;;5.72;;
42110;SDS011;27766;52.174;5.456;2024-02-21T04:33:56;12.57;;;4.97;;
42110;SDS011;27766;52.174;5.456;2024-02-21T04:36:24;9.35;;;5.40;;
42110;SDS011;27766;52.174;5.456;2024-02-21T04:38:51;10.07;;;5.10;;
42110;SDS011;27766;52.174;5.456;2024-02-21T04:41:18;11.65;;;5.05;;
42110;SDS011;27766;52.174;5.456;2024-02-21T04:43:46;8.95;;;5.57;;
42110;SDS011;27766;52.174;5.456;2024-02-21T04:46:14;7.70;;;5.10;;
42110;SDS011;27766;52.174;5.456;2024-02-21T04:48:42;10.48;;;5.60;;
42110;SDS011;27766;52.174;5.456;2024-02-21T04:51:11;13.15;;;5.80;;
42110;SDS011;27766;52.174;5.456;2024-02-21T04:53:38;10.65;;;5.53;;
42110;SDS011;27766;52.174;5.456;2024-02-21T04:56:06;10.68;;;5.75;;
42110;SDS011;27766;52.174;5.456;2024-02-21T04:58:33;9.50;;;5.75;;
42110;SDS011;27766;52.174;5.456;2024-02-21T05:01:04;6.63;;;4.82;;
42110;SDS011;27766;52.174;5.456;2024-02-21T05:03:31;6.15;;;4.63;;
42110;SDS011;27766;52.174;5.456;2024-02-21T05:05:59;8.93;;;5.43;;
42110;SDS011;27766;52.174;5.456;2024-02-21T05:08:26;7.30;;;5.30;;
42110;SDS011;27766;52.174;5.456;2024-02-21T05:10:54;12.25;;;5.00;;
42110;SDS011;27766;52.174;5.456;2024-02-21T05:13:21;10.73;;;5.50;;
42110;SDS011;27766;52.174;5.456;2024-02-21T05:15:48;10.48;;;6.30;;
42110;SDS011;27766;52.174;5.456;2024-02-21T05:18:16;10.30;;;5.75;;
42110;SDS011;27766;52.174;5.456;2024-02-21T05:20:43;14.32;;;6.20;;
42110;SDS011;27766;52.174;5.456;2024-02-21T05:23:10;13.82;;;5.75;;
42110;SDS011;27766;52.174;5.456;2024-02-21T05:25:37;13.52;;;5.97;;
42110;SDS011;27766;52.174;5.456;2024-02-21T05:28:05;6.80;;;5.57;;
42110;SDS011;27766;52.174;5.456;2024-02-21T05:30:33;8.57;;;5.75;;
42110;SDS011;27766;52.174;5.456;2024-02-21T05:33:03;9.80;;;5.57;;
42110;SDS011;27766;52.174;5.456;2024-02-21T05:35:34;11.23;;;6.43;;
42110;SDS011;27766;52.174;5.456;2024-02-21T05:38:03;9.63;;;5.57;;
42110;SDS011;27766;52.174;5.456;2024-02-21T05:40:38;9.60;;;5.47;;
42110;SDS011;27766;52.174;5.456;2024-02-21T05:43:07;8.75;;;5.43;;
42110;SDS011;27766;52.174;5.456;2024-02-21T05:45:34;7.65;;;5.80;;
42110;SDS011;27766;52.174;5.456;2024-02-21T05:48:02;9.73;;;6.47;;
42110;SDS011;27766;52.174;5.456;2024-02-21T05:50:29;11.98;;;5.30;;
42110;SDS011;27766;52.174;5.456;2024-02-21T05:52:57;10.60;;;5.28;;
42110;SDS011;27766;52.174;5.456;2024-02-21T05:55:24;10.70;;;5.55;;
42110;SDS011;27766;52.174;5.456;2024-02-21T05:57:55;12.05;;;6.00;;
42110;SDS011;27766;52.174;5.456;2024-02-21T06:00:22;8.38;;;5.45;;
42110;SDS011;27766;52.174;5.456;2024-02-21T06:02:50;15.88;;;6.22;;
42110;SDS011;27766;52.174;5.456;2024-02-21T06:05:17;10.75;;;5.78;;
42110;SDS011;27766;52.174;5.456;2024-02-21T06:07:44;8.43;;;5.32;;
42110;SDS011;27766;52.174;5.456;2024-02-21T06:10:11;11.40;;;6.38;;
42110;SDS011;27766;52.174;5.456;2024-02-21T06:12:39;15.55;;;6.60;;
42110;SDS011;27766;52.174;5.456;2024-02-21T06:15:06;8.73;;;5.75;;
42110;SDS011;27766;52.174;5.456;2024-02-21T06:17:33;9.90;;;5.85;;
42110;SDS011;27766;52.174;5.456;2024-02-21T06:20:01;11.38;;;6.63;;
42110;SDS011;27766;52.174;5.456;2024-02-21T06:22:29;14.10;;;6.35;;
42110;SDS011;27766;52.174;5.456;2024-02-21T06:24:57;17.02;;;7.78;;
42110;SDS011;27766;52.174;5.456;2024-02-21T06:27:25;10.82;;;7.07;;
42110;SDS011;27766;52.174;5.456;2024-02-21T06:29:52;13.10;;;7.22;;
42110;SDS011;27766;52.174;5.456;2024-02-21T06:32:20;9.18;;;7.65;;
42110;SDS011;27766;52.174;5.456;2024-02-21T06:34:47;12.50;;;7.65;;
42110;SDS011;27766;52.174;5.456;2024-02-21T06:37:14;11.05;;;7.53;;
42110;SDS011;27766;52.174;5.456;2024-02-21T06:39:44;13.10;;;7.53;;
42110;SDS011;27766;52.174;5.456;2024-02-21T06:42:11;17.70;;;7.75;;
42110;SDS011;27766;52.174;5.456;2024-02-21T06:44:38;12.60;;;7.72;;
42110;SDS011;27766;52.174;5.456;2024-02-21T06:47:07;18.65;;;8.63;;
42110;SDS011;27766;52.174;5.456;2024-02-21T06:49:35;11.40;;;8.07;;
42110;SDS011;27766;52.174;5.456;2024-02-21T06:52:06;17.92;;;10.13;;
42110;SDS011;27766;52.174;5.456;2024-02-21T06:54:33;15.60;;;10.30;;
42110;SDS011;27766;52.174;5.456;2024-02-21T06:57:00;14.73;;;9.75;;
42110;SDS011;27766;52.174;5.456;2024-02-21T06:59:27;16.70;;;10.10;;
42110;SDS011;27766;52.174;5.456;2024-02-21T07:01:54;19.83;;;11.07;;
42110;SDS011;27766;52.174;5.456;2024-02-21T07:04:22;16.85;;;10.43;;
42110;SDS011;27766;52.174;5.456;2024-02-21T07:06:50;21.45;;;10.82;;
42110;SDS011;27766;52.174;5.456;2024-02-21T07:09:17;16.65;;;10.80;;
42110;SDS011;27766;52.174;5.456;2024-02-21T07:11:45;21.52;;;11.20;;
42110;SDS011;27766;52.174;5.456;2024-02-21T07:14:13;16.52;;;10.80;;
42110;SDS011;27766;52.174;5.456;2024-02-21T07:16:42;22.52;;;11.10;;
42110;SDS011;27766;52.174;5.456;2024-02-21T07:19:09;23.92;;;11.63;;
42110;SDS011;27766;52.174;5.456;2024-02-21T07:21:37;14.73;;;10.20;;
42110;SDS011;27766;52.174;5.456;2024-02-21T07:24:09;22.42;;;12.23;;
42110;SDS011;27766;52.174;5.456;2024-02-21T07:26:36;18.70;;;11.90;;
42110;SDS011;27766;52.174;5.456;2024-02-21T07:29:03;26.73;;;11.90;;
42110;SDS011;27766;52.174;5.456;2024-02-21T07:31:30;15.13;;;11.15;;
42110;SDS011;27766;52.174;5.456;2024-02-21T07:33:58;17.15;;;11.38;;
42110;SDS011;27766;52.174;5.456;2024-02-21T07:36:27;16.30;;;10.27;;
42110;SDS011;27766;52.174;5.456;2024-02-21T07:38:57;18.05;;;11.00;;
42110;SDS011;27766;52.174;5.456;2024-02-21T07:41:27;17.27;;;11.00;;
42110;SDS011;27766;52.174;5.456;2024-02-21T07:43:57;14.38;;;9.65;;
42110;SDS011;27766;52.174;5.456;2024-02-21T07:46:24;15.50;;;10.32;;
42110;SDS011;27766;52.174;5.456;2024-02-21T07:48:52;14.63;;;10.07;;
42110;SDS011;27766;52.174;5.456;2024-02-21T07:51:21;13.13;;;9.20;;
42110;SDS011;27766;52.174;5.456;2024-02-21T07:53:48;15.23;;;9.25;;
42110;SDS011;27766;52.174;5.456;2024-02-21T07:56:16;14.85;;;9.50;;
42110;SDS011;27766;52.174;5.456;2024-02-21T07:58:43;12.18;;;7.85;;
42110;SDS011;27766;52.174;5.456;2024-02-21T08:01:11;14.55;;;9.13;;
42110;SDS011;27766;52.174;5.456;2024-02-21T08:03:38;13.75;;;8.00;;
42110;SDS011;27766;52.174;5.456;2024-02-21T08:06:05;19.08;;;8.65;;
42110;SDS011;27766;52.174;5.456;2024-02-21T08:08:38;13.80;;;7.57;;
42110;SDS011;27766;52.174;5.456;2024-02-21T08:11:06;11.32;;;7.65;;
42110;SDS011;27766;52.174;5.456;2024-02-21T08:13:33;20.45;;;7.45;;
42110;SDS011;27766;52.174;5.456;2024-02-21T08:16:00;15.95;;;7.70;;
42110;SDS011;27766;52.174;5.456;2024-02-21T08:18:28;11.23;;;7.78;;
42110;SDS011;27766;52.174;5.456;2024-02-21T08:20:55;15.93;;;8.25;;
42110;SDS011;27766;52.174;5.456;2024-02-21T08:23:23;9.98;;;7.32;;
42110;SDS011;27766;52.174;5.456;2024-02-21T08:25:51;14.75;;;9.10;;
42110;SDS011;27766;52.174;5.456;2024-02-21T08:28:18;14.82;;;8.32;;
42110;SDS011;27766;52.174;5.456;2024-02-21T08:30:46;14.93;;;8.30;;
42110;SDS011;27766;52.174;5.456;2024-02-21T08:33:15;15.27;;;8.13;;
42110;SDS011;27766;52.174;5.456;2024-02-21T08:35:43;13.57;;;8.50;;
42110;SDS011;27766;52.174;5.456;2024-02-21T08:38:11;17.77;;;8.45;;
42110;SDS011;27766;52.174;5.456;2024-02-21T08:40:38;12.73;;;8.85;;
42110;SDS011;27766;52.174;5.456;2024-02-21T08:43:05;13.45;;;8.30;;
42110;SDS011;27766;52.174;5.456;2024-02-21T08:45:33;17.25;;;9.35;;
42110;SDS011;27766;52.174;5.456;2024-02-21T08:48:00;13.73;;;8.93;;
42110;SDS011;27766;52.174;5.456;2024-02-21T08:50:27;18.98;;;9.00;;
42110;SDS011;27766;52.174;5.456;2024-02-21T08:52:56;15.60;;;9.50;;
42110;SDS011;27766;52.174;5.456;2024-02-21T08:55:23;16.00;;;9.50;;
42110;SDS011;27766;52.174;5.456;2024-02-21T08:57:51;12.68;;;8.25;;
42110;SDS011;27766;52.174;5.456;2024-02-21T09:00:18;16.48;;;8.48;;
42110;SDS011;27766;52.174;5.456;2024-02-21T09:02:51;13.88;;;9.10;;
42110;SDS011;27766;52.174;5.456;2024-02-21T09:05:18;13.20;;;9.13;;
42110;SDS011;27766;52.174;5.456;2024-02-21T09:07:46;16.42;;;8.82;;
42110;SDS011;27766;52.174;5.456;2024-02-21T09:10:13;17.20;;;9.50;;
42110;SDS011;27766;52.174;5.456;2024-02-21T09:12:40;14.77;;;9.00;;
42110;SDS011;27766;52.174;5.456;2024-02-21T09:15:08;18.00;;;7.93;;
42110;SDS011;27766;52.174;5.456;2024-02-21T09:17:35;19.17;;;9.02;;
42110;SDS011;27766;52.174;5.456;2024-02-21T09:20:02;10.73;;;6.95;;
42110;SDS011;27766;52.174;5.456;2024-02-21T09:22:30;12.63;;;7.25;;
42110;SDS011;27766;52.174;5.456;2024-02-21T09:25:01;14.88;;;8.07;;
42110;SDS011;27766;52.174;5.456;2024-02-21T09:27:30;11.50;;;7.57;;
42110;SDS011;27766;52.174;5.456;2024-02-21T09:29:57;12.93;;;7.68;;
42110;SDS011;27766;52.174;5.456;2024-02-21T09:32:25;12.65;;;7.65;;
42110;SDS011;27766;52.174;5.456;2024-02-21T09:34:52;23.20;;;7.15;;
42110;SDS011;27766;52.174;5.456;2024-02-21T09:37:26;13.38;;;7.28;;
42110;SDS011;27766;52.174;5.456;2024-02-21T09:39:53;10.77;;;6.85;;
42110;SDS011;27766;52.174;5.456;2024-02-21T09:42:21;13.77;;;7.35;;
42110;SDS011;27766;52.174;5.456;2024-02-21T09:44:51;10.63;;;7.35;;
42110;SDS011;27766;52.174;5.456;2024-02-21T09:50:40;14.98;;;7.45;;
42110;SDS011;27766;52.174;5.456;2024-02-21T09:53:12;13.75;;;6.60;;
42110;SDS011;27766;52.174;5.456;2024-02-21T09:55:43;13.23;;;7.20;;
42110;SDS011;27766;52.174;5.456;2024-02-21T09:58:12;12.00;;;6.10;;
42110;SDS011;27766;52.174;5.456;2024-02-21T10:00:39;9.27;;;6.15;;
42110;SDS011;27766;52.174;5.456;2024-02-21T10:03:06;10.90;;;6.38;;
42110;SDS011;27766;52.174;5.456;2024-02-21T10:05:35;10.57;;;5.75;;
42110;SDS011;27766;52.174;5.456;2024-02-21T10:08:04;9.60;;;5.95;;
42110;SDS011;27766;52.174;5.456;2024-02-21T10:10:44;10.73;;;5.82;;
42110;SDS011;27766;52.174;5.456;2024-02-21T10:13:24;12.60;;;5.97;;
42110;SDS011;27766;52.174;5.456;2024-02-21T10:16:05;11.40;;;6.15;;
42110;SDS011;27766;52.174;5.456;2024-02-21T10:18:35;9.90;;;5.82;;
42110;SDS011;27766;52.174;5.456;2024-02-21T10:21:03;8.65;;;5.22;;
42110;SDS011;27766;52.174;5.456;2024-02-21T10:23:45;9.25;;;5.43;;
42110;SDS011;27766;52.174;5.456;2024-02-21T10:26:14;8.05;;;4.63;;
42110;SDS011;27766;52.174;5.456;2024-02-21T10:28:43;6.90;;;4.97;;
42110;SDS011;27766;52.174;5.456;2024-02-21T10:31:22;9.07;;;4.85;;
42110;SDS011;27766;52.174;5.456;2024-02-21T10:33:58;8.88;;;5.20;;
42110;SDS011;27766;52.174;5.456;2024-02-21T10:36:27;7.75;;;4.82;;
42110;SDS011;27766;52.174;5.456;2024-02-21T10:38:54;5.80;;;4.68;;
42110;SDS011;27766;52.174;5.456;2024-02-21T10:41:23;8.63;;;4.72;;
42110;SDS011;27766;52.174;5.456;2024-02-21T10:43:54;8.32;;;5.30;;
42110;SDS011;27766;52.174;5.456;2024-02-21T10:46:23;7.00;;;4.30;;
42110;SDS011;27766;52.174;5.456;2024-02-21T10:48:58;6.05;;;4.30;;
42110;SDS011;27766;52.174;5.456;2024-02-21T10:51:33;10.00;;;4.13;;
42110;SDS011;27766;52.174;5.456;2024-02-21T10:54:06;4.85;;;3.72;;
42110;SDS011;27766;52.174;5.456;2024-02-21T10:56:39;8.13;;;4.30;;
42110;SDS011;27766;52.174;5.456;2024-02-21T10:59:08;6.43;;;3.47;;
42110;SDS011;27766;52.174;5.456;2024-02-21T11:01:35;5.35;;;3.95;;
42110;SDS011;27766;52.174;5.456;2024-02-21T11:04:04;7.85;;;3.92;;
42110;SDS011;27766;52.174;5.456;2024-02-21T11:06:34;6.55;;;3.67;;
42110;SDS011;27766;52.174;5.456;2024-02-21T11:09:03;4.05;;;3.20;;
42110;SDS011;27766;52.174;5.456;2024-02-21T11:11:38;5.35;;;3.80;;
42110;SDS011;27766;52.174;5.456;2024-02-21T11:14:08;5.88;;;3.53;;
42110;SDS011;27766;52.174;5.456;2024-02-21T11:16:37;8.60;;;4.18;;
42110;SDS011;27766;52.174;5.456;2024-02-21T11:19:07;5.22;;;4.00;;
42110;SDS011;27766;52.174;5.456;2024-02-21T11:21:37;15.15;;;4.95;;
42110;SDS011;27766;52.174;5.456;2024-02-21T11:24:04;7.20;;;4.78;;
42110;SDS011;27766;52.174;5.456;2024-02-21T11:26:32;10.52;;;4.82;;
42110;SDS011;27766;52.174;5.456;2024-02-21T11:29:00;12.25;;;4.72;;
42110;SDS011;27766;52.174;5.456;2024-02-21T11:31:42;8.65;;;4.60;;
42110;SDS011;27766;52.174;5.456;2024-02-21T11:34:10;9.77;;;4.97;;
42110;SDS011;27766;52.174;5.456;2024-02-21T11:36:48;6.53;;;4.25;;
42110;SDS011;27766;52.174;5.456;2024-02-21T11:39:20;5.28;;;4.03;;
42110;SDS011;27766;52.174;5.456;2024-02-21T11:42:04;7.78;;;4.93;;
42110;SDS011;27766;52.174;5.456;2024-02-21T11:44:32;6.43;;;4.70;;
42110;SDS011;27766;52.174;5.456;2024-02-21T11:46:59;5.38;;;4.47;;
42110;SDS011;27766;52.174;5.456;2024-02-21T11:49:28;9.70;;;4.90;;
42110;SDS011;27766;52.174;5.456;2024-02-21T11:51:59;7.15;;;5.13;;
42110;SDS011;27766;52.174;5.456;2024-02-21T11:54:28;11.95;;;5.35;;
42110;SDS011;27766;52.174;5.456;2024-02-21T11:56:55;10.88;;;4.68;;
42110;SDS011;27766;52.174;5.456;2024-02-21T11:59:22;9.40;;;5.60;;
42110;SDS011;27766;52.174;5.456;2024-02-21T12:01:49;7.97;;;5.30;;
42110;SDS011;27766;52.174;5.456;2024-02-21T12:04:19;10.55;;;5.30;;
42110;SDS011;27766;52.174;5.456;2024-02-21T12:06:47;7.93;;;5.55;;
42110;SDS011;27766;52.174;5.456;2024-02-21T12:09:15;7.18;;;5.03;;
42110;SDS011;27766;52.174;5.456;2024-02-21T12:11:43;9.23;;;6.07;;
42110;SDS011;27766;52.174;5.456;2024-02-21T12:14:17;8.65;;;5.45;;
42110;SDS011;27766;52.174;5.456;2024-02-21T12:16:44;6.93;;;5.40;;
42110;SDS011;27766;52.174;5.456;2024-02-21T12:19:14;9.05;;;5.55;;
42110;SDS011;27766;52.174;5.456;2024-02-21T12:21:44;9.23;;;5.57;;
42110;SDS011;27766;52.174;5.456;2024-02-21T12:24:15;6.53;;;4.70;;
42110;SDS011;27766;52.174;5.456;2024-02-21T12:26:44;7.15;;;5.60;;
42110;SDS011;27766;52.174;5.456;2024-02-21T12:29:12;7.90;;;5.20;;
42110;SDS011;27766;52.174;5.456;2024-02-21T12:31:39;5.88;;;4.47;;
42110;SDS011;27766;52.174;5.456;2024-02-21T12:34:06;6.50;;;4.97;;
42110;SDS011;27766;52.174;5.456;2024-02-21T12:36:43;9.07;;;5.03;;
42110;SDS011;27766;52.174;5.456;2024-02-21T12:39:11;10.30;;;4.95;;
42110;SDS011;27766;52.174;5.456;2024-02-21T12:41:38;7.75;;;4.13;;
42110;SDS011;27766;52.174;5.456;2024-02-21T12:44:07;7.43;;;5.10;;
42110;SDS011;27766;52.174;5.456;2024-02-21T12:46:35;8.50;;;5.00;;
42110;SDS011;27766;52.174;5.456;2024-02-21T12:49:02;8.25;;;4.80;;
42110;SDS011;27766;52.174;5.456;2024-02-21T12:51:31;6.20;;;4.75;;
42110;SDS011;27766;52.174;5.456;2024-02-21T12:53:59;7.00;;;4.15;;
42110;SDS011;27766;52.174;5.456;2024-02-21T12:56:27;6.93;;;4.40;;
42110;SDS011;27766;52.174;5.456;2024-02-21T12:58:54;4.82;;;3.60;;
42110;SDS011;27766;52.174;5.456;2024-02-21T13:01:21;6.22;;;4.28;;
42110;SDS011;27766;52.174;5.456;2024-02-21T13:03:49;8.15;;;4.43;;
42110;SDS011;27766;52.174;5.456;2024-02-21T13:06:16;7.88;;;4.03;;
42110;SDS011;27766;52.174;5.456;2024-02-21T13:08:43;9.75;;;4.50;;
42110;SDS011;27766;52.174;5.456;2024-02-21T13:11:12;6.50;;;4.03;;
42110;SDS011;27766;52.174;5.456;2024-02-21T13:13:39;4.20;;;3.33;;
42110;SDS011;27766;52.174;5.456;2024-02-21T13:16:07;7.22;;;4.65;;
42110;SDS011;27766;52.174;5.456;2024-02-21T13:18:34;9.52;;;4.47;;
42110;SDS011;27766;52.174;5.456;2024-02-21T13:21:05;4.85;;;3.60;;
42110;SDS011;27766;52.174;5.456;2024-02-21T13:23:32;6.53;;;4.53;;
42110;SDS011;27766;52.174;5.456;2024-02-21T13:26:00;5.75;;;4.05;;
42110;SDS011;27766;52.174;5.456;2024-02-21T13:28:27;5.80;;;3.95;;
42110;SDS011;27766;52.174;5.456;2024-02-21T13:30:55;6.22;;;3.78;;
42110;SDS011;27766;52.174;5.456;2024-02-21T13:33:22;8.52;;;3.22;;
42110;SDS011;27766;52.174;5.456;2024-02-21T13:35:49;5.38;;;3.58;;
42110;SDS011;27766;52.174;5.456;2024-02-21T13:38:17;7.90;;;4.30;;
42110;SDS011;27766;52.174;5.456;2024-02-21T13:40:48;4.35;;;2.70;;
42110;SDS011;27766;52.174;5.456;2024-02-21T13:43:15;5.90;;;4.18;;
42110;SDS011;27766;52.174;5.456;2024-02-21T13:45:45;4.45;;;3.40;;
42110;SDS011;27766;52.174;5.456;2024-02-21T13:48:23;7.80;;;3.97;;
42110;SDS011;27766;52.174;5.456;2024-02-21T13:51:00;5.47;;;3.58;;
42110;SDS011;27766;52.174;5.456;2024-02-21T13:53:29;6.78;;;3.55;;
42110;SDS011;27766;52.174;5.456;2024-02-21T13:55:56;11.70;;;3.30;;
42110;SDS011;27766;52.174;5.456;2024-02-21T13:58:24;7.57;;;3.63;;
42110;SDS011;27766;52.174;5.456;2024-02-21T14:00:53;4.85;;;3.25;;
42110;SDS011;27766;52.174;5.456;2024-02-21T14:03:21;8.02;;;3.67;;
42110;SDS011;27766;52.174;5.456;2024-02-21T14:05:48;6.43;;;3.33;;
42110;SDS011;27766;52.174;5.456;2024-02-21T14:08:15;9.48;;;3.33;;
42110;SDS011;27766;52.174;5.456;2024-02-21T14:10:43;7.18;;;3.80;;
42110;SDS011;27766;52.174;5.456;2024-02-21T14:13:10;6.60;;;3.00;;
42110;SDS011;27766;52.174;5.456;2024-02-21T14:15:39;10.07;;;3.55;;
42110;SDS011;27766;52.174;5.456;2024-02-21T14:18:09;4.35;;;3.03;;
42110;SDS011;27766;52.174;5.456;2024-02-21T14:20:37;5.18;;;2.65;;
42110;SDS011;27766;52.174;5.456;2024-02-21T14:23:04;7.57;;;3.80;;
42110;SDS011;27766;52.174;5.456;2024-02-21T14:25:32;8.13;;;3.10;;
42110;SDS011;27766;52.174;5.456;2024-02-21T14:28:01;9.40;;;4.35;;
42110;SDS011;27766;52.174;5.456;2024-02-21T14:30:28;4.28;;;2.78;;
42110;SDS011;27766;52.174;5.456;2024-02-21T14:32:55;8.38;;;4.07;;
42110;SDS011;27766;52.174;5.456;2024-02-21T14:35:23;7.90;;;3.15;;
42110;SDS011;27766;52.174;5.456;2024-02-21T14:37:54;3.78;;;2.60;;
42110;SDS011;27766;52.174;5.456;2024-02-21T14:40:24;6.45;;;3.75;;
42110;SDS011;27766;52.174;5.456;2024-02-21T14:42:51;4.78;;;2.97;;
42110;SDS011;27766;52.174;5.456;2024-02-21T14:45:19;6.15;;;3.03;;
42110;SDS011;27766;52.174;5.456;2024-02-21T14:47:46;5.97;;;2.63;;
42110;SDS011;27766;52.174;5.456;2024-02-21T14:50:14;6.68;;;3.05;;
42110;SDS011;27766;52.174;5.456;2024-02-21T14:52:41;7.65;;;3.47;;
42110;SDS011;27766;52.174;5.456;2024-02-21T14:55:08;5.72;;;3.00;;